NCAR-RAP Real-Time Weather Data

Output produced by METARs form (20 October 2014  04:22 UTC)
found at http://weather.rap.ucar.edu/surface/
 
Conditions at: K4O4 observed 20 October 2014  03:15 UTC
Temperature: 12.0°C (54°F)
Dewpoint: 8.0°C (46°F) [RH = 76%]
Pressure (altimeter): 30.10 inches Hg (1019.4 mb)
Winds: calm
Visibility: 3 miles (5 km)
Ceiling: at least 12,000 feet AGL
Clouds: sky clear below 12,000 feet AGL
Present Weather: automated observation with no human augmentation;
there may or may not be significant weather present at this time
K4O4 200315Z AUTO 00000KT 3SM CLR 12/08 A3010 RMK AO2